Bottle Hollow, Utah
Current Conditions -  °F | °C
As of 4:53 PM on Saturday 25 Oct 2014 (Local Time) from KVEL Reporting Station
Clear Clear  
Wind Chill: 67°   Ceiling: Unl
Heat Index: 67°   Visibility: 10mi
Dew Point: 36°   Wind: 6mph
Humidity: 32%   Direction: 200°SSW
Pressure: 30.07"   Gusts: NA
Location:  40.2958°N, 109.84°W
Report Text: KVEL 252253Z AUTO 20005KT 10SM CLR 19/02 A3007 RMK AO2 SLP151 T01940022
Loading
Personal Weather Stations






























Interactive Weather Map
Tropical Storm Tracking
New forecast layout! Learn more

10-Day Weather Forecast

Advertisements
Track Severe Weather on mobile